Time;durP1;ratioP1;P1;durP2;ratioP2;P2;SDS_P1;SDS_P2;PMS_P1;PMS_P2;Temp;Humidity;BMP_temperature;BMP_pressure;BME280_temperature;BME280_humidity;BME280_pressure;Samples;Min_cycle;Max_cycle;Signal;HPM_P1;HPM_P2
2022/01/10 00:00:21;;;;;;;34.80;13.80;;;2.50;99.90;;;;;;5114797;27;20046;-74
2022/01/10 00:02:50;;;;;;;34.17;14.37;;;2.50;99.90;;;;;;5113059;27;20466;-74
2022/01/10 00:05:17;;;;;;;27.30;11.63;;;2.60;99.90;;;;;;5109765;27;20038;-74
2022/01/10 00:07:43;;;;;;;27.17;12.43;;;2.50;99.90;;;;;;5109530;27;20057;-74
2022/01/10 00:10:09;;;;;;;26.53;11.67;;;2.50;99.90;;;;;;5122440;27;20047;-74
2022/01/10 00:12:35;;;;;;;35.40;13.27;;;2.50;99.90;;;;;;5089759;28;20050;-75
2022/01/10 00:15:02;;;;;;;34.00;13.37;;;2.40;99.90;;;;;;5102957;27;20047;-74
2022/01/10 00:17:27;;;;;;;25.97;11.43;;;2.40;99.90;;;;;;5106031;28;20050;-74
2022/01/10 00:19:56;;;;;;;32.57;13.13;;;2.40;99.90;;;;;;5107126;27;20541;-74
2022/01/10 00:22:26;;;;;;;38.40;16.30;;;2.40;99.90;;;;;;5090322;28;20054;-75
2022/01/10 00:24:52;;;;;;;21.75;10.40;;;2.40;99.90;;;;;;5108069;28;20043;-75
2022/01/10 00:27:17;;;;;;;22.03;10.10;;;2.30;99.90;;;;;;5100311;27;20043;-74
2022/01/10 00:29:43;;;;;;;21.07;9.60;;;2.30;99.90;;;;;;5130200;27;20880;-75
2022/01/10 00:32:09;;;;;;;19.23;9.07;;;2.30;99.90;;;;;;5094497;27;20045;-74
2022/01/10 00:34:35;;;;;;;39.73;14.00;;;2.20;99.90;;;;;;5096463;27;20051;-74
2022/01/10 00:37:01;;;;;;;40.23;14.43;;;2.20;99.90;;;;;;5080062;27;20389;-74
2022/01/10 00:39:26;;;;;;;37.87;13.40;;;2.10;99.90;;;;;;5128894;27;20042;-74
2022/01/10 00:41:55;;;;;;;23.03;10.30;;;2.10;99.90;;;;;;5095734;27;20051;-74
2022/01/10 00:44:25;;;;;;;17.80;8.50;;;2.00;99.90;;;;;;5128793;27;20621;-74
2022/01/10 00:46:52;;;;;;;20.75;9.88;;;1.90;99.90;;;;;;5095352;27;20667;-74
2022/01/10 00:49:17;;;;;;;19.47;10.03;;;1.90;99.90;;;;;;5088488;28;20128;-74
2022/01/10 00:51:43;;;;;;;16.27;8.27;;;1.80;99.90;;;;;;5105472;27;20107;-74
2022/01/10 00:54:09;;;;;;;15.40;8.00;;;1.80;99.90;;;;;;5105915;28;20046;-74
2022/01/10 00:56:35;;;;;;;17.67;9.73;;;1.70;99.90;;;;;;5100726;28;20050;-75
2022/01/10 00:59:01;;;;;;;12.63;8.50;;;1.60;99.90;;;;;;5108283;27;20035;-74
2022/01/10 01:01:26;;;;;;;20.67;9.57;;;1.70;99.90;;;;;;5090595;28;20107;-74
2022/01/10 01:03:52;;;;;;;25.40;10.47;;;1.60;99.90;;;;;;5105609;27;20045;-75
2022/01/10 01:06:18;;;;;;;24.97;10.27;;;1.60;99.90;;;;;;5094059;27;20145;-74
2022/01/10 01:08:45;;;;;;;17.50;9.17;;;1.50;99.90;;;;;;5128867;27;20111;-74
2022/01/10 01:11:55;;;;;;;20.10;9.20;;;1.50;99.90;;;;;;5130071;27;20047;-74
2022/01/10 01:14:26;;;;;;;15.53;9.23;;;1.50;99.90;;;;;;5129899;27;20053;-74
2022/01/10 01:17:09;;;;;;;23.07;10.30;;;1.40;99.90;;;;;;5130720;27;20045;-73
2022/01/10 01:25:05;;;;;;;17.43;8.27;;;1.30;99.90;;;;;;5110574;28;20083;-73
2022/01/10 01:27:34;;;;;;;34.87;14.67;;;1.20;99.90;;;;;;5107085;28;20058;-73
2022/01/10 01:29:59;;;;;;;22.40;12.20;;;1.20;99.90;;;;;;5089872;27;20050;-74
2022/01/10 01:32:25;;;;;;;19.53;10.53;;;1.20;99.90;;;;;;5101582;27;20126;-75
2022/01/10 01:34:56;;;;;;;16.87;9.70;;;1.20;99.90;;;;;;5112043;27;20058;-74
2022/01/10 01:37:22;;;;;;;;;;;1.20;99.90;;;;;;5129332;27;20370;-74
2022/01/10 01:39:48;;;;;;;24.93;11.03;;;1.10;99.90;;;;;;5129834;27;19965;-74
2022/01/10 01:42:32;;;;;;;17.90;9.63;;;1.10;99.90;;;;;;5127209;27;20126;-74
2022/01/10 01:44:58;;;;;;;18.87;11.33;;;1.10;99.90;;;;;;5126814;27;20050;-74
2022/01/10 01:47:23;;;;;;;19.77;10.53;;;1.00;99.90;;;;;;5091082;27;20035;-74
2022/01/10 01:49:50;;;;;;;20.53;11.50;;;1.00;99.90;;;;;;5124085;27;20088;-75
2022/01/10 01:52:16;;;;;;;23.53;12.80;;;1.00;99.90;;;;;;5124492;27;20043;-74
2022/01/10 01:54:42;;;;;;;16.10;11.07;;;1.00;99.90;;;;;;5117182;27;20035;-74
2022/01/10 01:57:08;;;;;;;19.87;10.80;;;1.00;99.90;;;;;;5112231;27;20055;-75
2022/01/10 01:59:39;;;;;;;15.70;9.53;;;1.00;99.90;;;;;;5111142;27;20143;-75
2022/01/10 02:02:05;;;;;;;27.90;15.40;;;1.00;99.90;;;;;;5128760;27;20975;-75
2022/01/10 02:04:31;;;;;;;32.17;15.73;;;1.00;99.90;;;;;;5110346;27;20055;-74
2022/01/10 02:06:57;;;;;;;26.43;16.17;;;1.00;99.90;;;;;;5125724;27;20054;-75
2022/01/10 02:09:23;;;;;;;25.20;13.73;;;1.00;99.90;;;;;;5125293;27;20066;-74
2022/01/10 02:11:48;;;;;;;32.07;17.33;;;0.90;99.90;;;;;;5083695;27;20569;-74
2022/01/10 02:14:18;;;;;;;25.17;14.23;;;0.90;99.90;;;;;;5124151;27;20447;-74
2022/01/10 02:16:52;;;;;;;35.40;17.90;;;0.90;99.90;;;;;;5087365;28;20054;-74
2022/01/10 02:19:18;;;;;;;23.13;14.80;;;0.90;99.90;;;;;;5107981;27;20631;-74
2022/01/10 02:21:44;;;;;;;23.33;14.30;;;0.80;99.90;;;;;;5104555;27;20043;-74
2022/01/10 02:24:10;;;;;;;47.40;21.90;;;0.80;99.90;;;;;;5104645;27;20774;-74
2022/01/10 02:26:37;;;;;;;35.63;18.40;;;0.80;99.90;;;;;;5101608;28;20070;-74
2022/01/10 02:29:04;;;;;;;27.23;14.27;;;0.80;99.90;;;;;;5102457;27;20051;-74
2022/01/10 02:31:30;;;;;;;29.70;16.73;;;0.80;99.90;;;;;;5098940;27;20047;-75
2022/01/10 02:33:57;;;;;;;30.00;16.27;;;0.70;99.90;;;;;;5090143;27;20055;-74
2022/01/10 02:36:26;;;;;;;24.33;14.57;;;0.70;99.90;;;;;;5106130;27;20556;-74
2022/01/10 02:38:58;;;;;;;24.33;14.40;;;0.70;99.90;;;;;;5105816;27;20043;-74
2022/01/10 02:41:24;;;;;;;24.10;15.70;;;0.70;99.90;;;;;;5105870;27;20038;-73
2022/01/10 02:43:50;;;;;;;42.13;20.80;;;0.70;99.90;;;;;;5105887;27;20047;-73
2022/01/10 02:46:16;;;;;;;39.70;20.23;;;0.70;99.90;;;;;;5106742;27;20039;-73
2022/01/10 02:48:42;;;;;;;39.67;19.63;;;0.70;99.90;;;;;;5103370;28;20100;-73
2022/01/10 02:51:09;;;;;;;34.90;20.37;;;0.70;99.90;;;;;;5098525;27;20049;-74
2022/01/10 02:53:34;;;;;;;35.40;20.60;;;0.70;99.90;;;;;;5090593;27;20043;-74
2022/01/10 02:56:00;;;;;;;40.40;21.07;;;0.70;99.90;;;;;;5090917;27;20092;-72
2022/01/10 02:58:26;;;;;;;49.57;22.73;;;0.70;99.90;;;;;;5107486;27;20043;-73
2022/01/10 03:00:52;;;;;;;38.00;20.77;;;0.70;99.90;;;;;;5105626;27;20051;-72
2022/01/10 03:03:17;;;;;;;34.53;18.50;;;0.60;99.90;;;;;;5102919;28;20053;-73
2022/01/10 03:05:43;;;;;;;32.43;18.67;;;0.60;99.90;;;;;;5095603;27;20122;-73
2022/01/10 03:08:09;;;;;;;32.97;19.17;;;0.60;99.90;;;;;;5106106;27;20412;-73
2022/01/10 03:10:35;;;;;;;27.93;17.30;;;0.60;99.90;;;;;;5088497;27;20051;-73
2022/01/10 03:13:02;;;;;;;28.77;17.27;;;0.60;99.90;;;;;;5122726;27;20043;-72
2022/01/10 03:15:31;;;;;;;32.63;19.33;;;0.60;99.90;;;;;;5122839;27;20043;-73
2022/01/10 03:17:57;;;;;;;31.00;17.33;;;0.60;99.90;;;;;;5107567;27;20047;-73
2022/01/10 03:20:23;;;;;;;37.40;21.63;;;0.50;99.90;;;;;;5105726;27;20047;-73
2022/01/10 03:22:50;;;;;;;34.10;20.13;;;0.50;99.90;;;;;;5107410;27;20262;-73
2022/01/10 03:25:17;;;;;;;31.63;19.50;;;0.50;99.90;;;;;;5110814;27;20082;-72
2022/01/10 03:27:43;;;;;;;30.07;18.30;;;0.50;99.90;;;;;;5124921;27;20051;-73
2022/01/10 03:30:10;;;;;;;29.20;19.27;;;0.50;99.90;;;;;;5089221;27;20039;-72
2022/01/10 03:32:37;;;;;;;30.33;19.37;;;0.50;99.90;;;;;;5088583;27;20147;-73
2022/01/10 03:35:04;;;;;;;33.97;21.27;;;0.50;99.90;;;;;;5107316;27;20078;-73
2022/01/10 03:37:29;;;;;;;43.77;21.33;;;0.40;99.90;;;;;;5106747;27;20043;-72
2022/01/10 03:39:56;;;;;;;36.50;21.43;;;0.40;99.90;;;;;;5107241;27;20482;-73
2022/01/10 03:42:21;;;;;;;34.97;20.53;;;0.40;99.90;;;;;;5073394;27;20043;-73
2022/01/10 03:44:47;;;;;;;29.87;18.63;;;0.40;99.90;;;;;;5107319;27;20550;-72
2022/01/10 03:47:18;;;;;;;32.07;19.00;;;0.30;99.90;;;;;;5102957;28;20040;-73
2022/01/10 03:49:44;;;;;;;30.17;18.90;;;0.30;99.90;;;;;;5102678;28;20092;-73
2022/01/10 03:52:10;;;;;;;34.17;19.50;;;0.20;99.90;;;;;;5103329;28;20038;-73
2022/01/10 03:54:36;;;;;;;25.87;18.93;;;0.20;99.90;;;;;;5086979;28;20047;-73
2022/01/10 03:57:02;;;;;;;64.40;32.37;;;0.20;99.90;;;;;;5086789;28;20645;-73
2022/01/10 03:59:28;;;;;;;49.70;32.50;;;0.20;99.90;;;;;;5086295;28;20048;-73
2022/01/10 04:01:56;;;;;;;90.23;44.97;;;0.10;99.90;;;;;;5099240;28;20044;-73
2022/01/10 04:04:22;;;;;;;48.43;31.93;;;0.20;99.90;;;;;;5103153;28;20043;-73
2022/01/10 04:06:48;;;;;;;45.40;27.93;;;0.20;99.90;;;;;;5081358;27;20738;-73
2022/01/10 04:09:14;;;;;;;86.07;39.57;;;0.20;99.90;;;;;;5122681;27;20115;-73
2022/01/10 04:11:40;;;;;;;76.67;37.90;;;0.20;99.90;;;;;;5101562;28;20051;-73
2022/01/10 04:14:05;;;;;;;35.17;23.47;;;0.20;99.90;;;;;;5103069;27;20047;-73
2022/01/10 04:16:31;;;;;;;54.77;32.17;;;0.10;99.90;;;;;;5122215;27;20227;-73
2022/01/10 04:18:57;;;;;;;36.47;25.50;;;0.10;99.90;;;;;;5105144;28;20150;-73
2022/01/10 04:21:23;;;;;;;38.67;24.80;;;0.10;99.90;;;;;;5086066;28;20039;-72
2022/01/10 04:23:49;;;;;;;76.13;45.03;;;0.10;99.90;;;;;;5103732;28;20035;-73
2022/01/10 04:26:16;;;;;;;98.67;52.77;;;0.10;99.90;;;;;;5102883;28;20039;-73
2022/01/10 04:28:42;;;;;;;46.17;33.33;;;0.20;99.90;;;;;;5105756;28;20315;-73
2022/01/10 04:31:10;;;;;;;100.37;52.47;;;0.20;99.90;;;;;;5103643;28;20537;-73
2022/01/10 04:33:35;;;;;;;57.07;37.33;;;0.20;99.90;;;;;;5105985;28;20054;-73
2022/01/10 04:36:01;;;;;;;69.27;38.93;;;0.20;99.90;;;;;;5106456;28;20486;-73
2022/01/10 04:38:27;;;;;;;39.37;26.60;;;0.10;99.90;;;;;;5089173;28;20051;-73
2022/01/10 04:40:53;;;;;;;37.87;28.47;;;0.20;99.90;;;;;;5086706;28;20156;-73
2022/01/10 04:43:19;;;;;;;46.17;29.73;;;0.10;99.90;;;;;;5106086;27;20165;-73
2022/01/10 04:45:45;;;;;;;40.03;26.97;;;0.10;99.90;;;;;;5107084;28;20048;-72
2022/01/10 04:48:11;;;;;;;43.20;28.47;;;0.10;99.90;;;;;;5113565;27;20368;-72
2022/01/10 04:53:05;;;;;;;59.13;37.03;;;0.00;99.90;;;;;;5107763;28;20048;-72
2022/01/10 04:55:30;;;;;;;46.40;31.53;;;0.00;99.90;;;;;;5105361;28;20040;-72
2022/01/10 04:57:56;;;;;;;47.60;34.47;;;0.00;99.90;;;;;;5116279;27;20043;-73
2022/01/10 05:00:22;;;;;;;60.40;37.63;;;0.00;99.90;;;;;;5103233;27;20048;-73
2022/01/10 05:02:50;;;;;;;56.33;37.03;;;0.00;99.90;;;;;;5125549;27;20050;-73
2022/01/10 05:05:16;;;;;;;53.53;38.77;;;0.00;99.90;;;;;;5108961;27;20043;-73
2022/01/10 05:07:42;;;;;;;47.20;34.03;;;0.00;99.90;;;;;;5127572;27;20050;-73
2022/01/10 05:10:08;;;;;;;53.50;36.63;;;0.00;99.90;;;;;;5112831;27;20039;-73
2022/01/10 05:12:34;;;;;;;46.27;32.27;;;0.00;99.90;;;;;;5112044;27;20058;-73
2022/01/10 05:15:00;;;;;;;40.00;28.93;;;-0.10;99.90;;;;;;5096531;27;20224;-73
2022/01/10 05:17:26;;;;;;;56.13;39.57;;;-0.10;99.90;;;;;;5129461;27;20071;-73
2022/01/10 05:19:51;;;;;;;69.30;43.23;;;-0.10;99.90;;;;;;5092237;27;20422;-73
2022/01/10 05:22:17;;;;;;;40.13;29.37;;;-0.20;99.90;;;;;;5111495;27;20617;-73
2022/01/10 05:24:43;;;;;;;48.10;32.87;;;-0.20;99.90;;;;;;5113429;27;20047;-73
2022/01/10 05:27:09;;;;;;;47.03;33.67;;;-0.20;99.90;;;;;;5109612;27;20092;-74
2022/01/10 05:29:35;;;;;;;45.33;31.80;;;-0.30;99.90;;;;;;5109355;27;20046;-73
2022/01/10 05:32:01;;;;;;;43.73;32.57;;;-0.20;99.90;;;;;;5109889;27;20042;-73
2022/01/10 05:34:26;;;;;;;53.07;34.70;;;-0.30;99.90;;;;;;5112199;27;20038;-74
2022/01/10 05:36:52;;;;;;;48.17;34.90;;;-0.20;99.90;;;;;;5130213;27;20086;-74
2022/01/10 05:39:18;;;;;;;39.87;29.43;;;-0.30;99.90;;;;;;5095217;27;20035;-74
2022/01/10 05:41:45;;;;;;;42.47;30.17;;;-0.40;99.90;;;;;;5130081;27;20103;-72
2022/01/10 05:44:11;;;;;;;52.13;36.17;;;-0.40;99.90;;;;;;5129624;27;20039;-72
2022/01/10 05:46:38;;;;;;;47.20;35.80;;;-0.40;99.90;;;;;;5095452;27;20047;-72
2022/01/10 05:49:04;;;;;;;48.20;36.63;;;-0.40;99.90;;;;;;5127663;27;20035;-73
2022/01/10 05:51:36;;;;;;;46.20;36.10;;;-0.40;99.90;;;;;;5127566;27;20043;-73
2022/01/10 05:54:04;;;;;;;41.37;32.40;;;-0.30;99.90;;;;;;5108968;27;20047;-73
2022/01/10 05:56:32;;;;;;;41.77;30.60;;;-0.30;99.90;;;;;;5103352;27;20058;-73
2022/01/10 05:58:58;;;;;;;38.67;31.33;;;-0.30;99.90;;;;;;5110302;27;20090;-74
2022/01/10 06:01:24;;;;;;;46.07;36.50;;;-0.30;99.90;;;;;;5086133;27;20079;-74
2022/01/10 06:03:50;;;;;;;46.07;36.53;;;-0.40;99.90;;;;;;5113592;27;20039;-73
2022/01/10 06:06:16;;;;;;;52.20;38.73;;;-0.30;99.90;;;;;;5095425;27;20099;-73
2022/01/10 06:08:41;;;;;;;58.70;42.23;;;-0.30;99.90;;;;;;5090621;27;20056;-74
2022/01/10 06:11:07;;;;;;;56.53;40.70;;;-0.30;99.90;;;;;;5104759;28;20126;-73
2022/01/10 06:13:33;;;;;;;51.27;38.57;;;-0.30;99.90;;;;;;5084005;28;20063;-73
2022/01/10 06:15:59;;;;;;;57.30;40.23;;;-0.30;99.90;;;;;;5073104;28;20062;-74
2022/01/10 06:18:31;;;;;;;117.50;65.83;;;-0.20;99.90;;;;;;5088316;28;20051;-74
2022/01/10 06:20:57;;;;;;;86.17;53.67;;;-0.40;99.90;;;;;;5098347;27;20051;-74
2022/01/10 06:23:23;;;;;;;103.77;63.20;;;-0.40;99.90;;;;;;5089400;28;20047;-73
2022/01/10 06:25:49;;;;;;;50.07;38.03;;;-0.40;99.90;;;;;;5103380;27;20055;-73
2022/01/10 06:28:15;;;;;;;49.47;38.30;;;-0.40;99.90;;;;;;5102031;27;20035;-74
2022/01/10 06:30:41;;;;;;;59.30;42.33;;;-0.40;99.90;;;;;;5117149;27;20044;-74
2022/01/10 06:33:07;;;;;;;42.87;36.07;;;-0.50;99.90;;;;;;5119054;27;20103;-74
2022/01/10 06:35:33;;;;;;;48.30;38.13;;;-0.50;99.90;;;;;;5119749;27;20036;-74
2022/01/10 06:37:59;;;;;;;54.53;42.67;;;-0.50;99.90;;;;;;5120842;27;20047;-73
2022/01/10 06:40:25;;;;;;;46.53;37.63;;;-0.50;99.90;;;;;;5104064;27;20708;-74
2022/01/10 06:42:51;;;;;;;69.63;49.83;;;-0.50;99.90;;;;;;5121909;27;20096;-73
2022/01/10 06:45:20;;;;;;;68.70;52.60;;;-0.50;99.90;;;;;;5071687;27;20111;-74
2022/01/10 06:47:46;;;;;;;65.83;48.10;;;-0.50;99.90;;;;;;5105875;27;20122;-73
2022/01/10 06:50:12;;;;;;;73.67;50.93;;;-0.40;99.90;;;;;;5120899;27;20066;-74
2022/01/10 06:52:38;;;;;;;65.97;45.90;;;-0.40;99.90;;;;;;5087382;27;20576;-73
2022/01/10 06:55:04;;;;;;;57.10;42.23;;;-0.40;99.90;;;;;;5103731;27;20070;-73
2022/01/10 06:57:30;;;;;;;76.73;51.33;;;-0.40;99.90;;;;;;5102569;27;20464;-73
2022/01/10 06:59:55;;;;;;;53.67;40.87;;;-0.40;99.90;;;;;;5102380;27;20070;-74
2022/01/10 07:02:21;;;;;;;54.97;42.47;;;-0.50;99.90;;;;;;5114201;27;20561;-73
2022/01/10 07:04:47;;;;;;;58.43;41.57;;;-0.50;99.90;;;;;;5108279;27;20127;-73
2022/01/10 07:07:13;;;;;;;50.13;39.77;;;-0.60;99.90;;;;;;5089479;27;20044;-74
2022/01/10 07:09:39;;;;;;;50.37;39.33;;;-0.60;99.90;;;;;;5075785;27;20047;-74
2022/01/10 07:12:05;;;;;;;50.67;37.60;;;-0.60;99.90;;;;;;5082629;28;20130;-74
2022/01/10 07:14:33;;;;;;;54.30;40.47;;;-0.60;99.90;;;;;;5099345;27;20067;-73
2022/01/10 07:16:59;;;;;;;53.10;43.50;;;-0.60;99.90;;;;;;5096720;27;20130;-74
2022/01/10 07:19:25;;;;;;;66.70;49.30;;;-0.60;99.90;;;;;;5090476;27;20131;-74
2022/01/10 07:21:52;;;;;;;68.00;47.43;;;-0.60;99.90;;;;;;5117778;27;20051;-74
2022/01/10 07:24:18;;;;;;;60.27;45.50;;;-0.60;99.90;;;;;;5076137;27;20103;-73
2022/01/10 07:26:44;;;;;;;92.97;59.27;;;-0.50;99.90;;;;;;5104870;27;20047;-74
2022/01/10 07:29:11;;;;;;;49.33;41.03;;;-0.50;99.90;;;;;;5106042;27;20629;-74
2022/01/10 07:31:39;;;;;;;71.03;50.90;;;-0.50;99.90;;;;;;5087429;27;20562;-74
2022/01/10 07:34:05;;;;;;;77.53;54.87;;;-0.60;99.90;;;;;;5086780;27;20036;-74
2022/01/10 07:36:32;;;;;;;49.60;41.97;;;-0.60;99.90;;;;;;5101995;27;20044;-74
2022/01/10 07:39:01;;;;;;;59.43;44.87;;;-0.60;99.90;;;;;;5102675;27;20447;-74
2022/01/10 07:41:27;;;;;;;54.03;43.40;;;-0.60;99.90;;;;;;5120014;27;20042;-73
2022/01/10 07:43:52;;;;;;;54.90;45.13;;;-0.70;99.90;;;;;;5070480;27;20051;-74
2022/01/10 07:46:19;;;;;;;59.30;46.20;;;-0.70;99.90;;;;;;5106292;27;20802;-74
2022/01/10 07:48:45;;;;;;;70.00;51.33;;;-0.70;99.90;;;;;;5086022;27;20043;-73
2022/01/10 07:51:14;;;;;;;71.53;51.77;;;-0.70;99.90;;;;;;5087751;27;20070;-74
2022/01/10 07:53:41;;;;;;;79.23;56.47;;;-0.70;99.90;;;;;;5121113;27;20049;-75
2022/01/10 07:56:07;;;;;;;58.77;47.87;;;-0.60;99.90;;;;;;5080013;27;20139;-74
2022/01/10 07:58:34;;;;;;;61.87;48.97;;;-0.60;99.90;;;;;;5114112;27;20047;-74
2022/01/10 23:08:10;;;;;;;;;;;;;;;;;;;;;
2022/01/10 23:10:59;;;;;;;206.47;90.33;;;0.20;99.90;;;;;;4821446;29;20537;-94
2022/01/10 23:25:21;;;;;;;;;;;;;;;;;;;;;
2022/01/10 23:40:30;;;;;;;106.00;75.85;;;-0.10;99.90;;;;;;4901247;29;20128;-96
2022/01/10 23:43:37;;;;;;;113.50;73.63;;;-0.10;99.90;;;;;;4877686;29;20399;-96
2022/01/10 23:54:32;;;;;;;72.67;60.17;;;-0.20;99.90;;;;;;4877102;29;20080;-94
